Time;durP1;ratioP1;P1;durP2;ratioP2;P2;SDS_P1;SDS_P2;PMS_P1;PMS_P2;Temp;Humidity;BMP_temperature;BMP_pressure;BME280_temperature;BME280_humidity;BME280_pressure;Samples;Min_cycle;Max_cycle;Signal;HPM_P1;HPM_P2
2023/06/02 00:02:15;;;;;;;;;;;10.40;99.90;;;;;;5020120;28;19971;-87
2023/06/02 00:04:41;;;;;;;;;;;10.40;99.90;;;;;;5019834;28;20406;-87
2023/06/02 00:07:07;;;;;;;;;;;10.40;99.90;;;;;;5012669;28;19929;-87
2023/06/02 00:09:37;;;;;;;;;;;10.30;99.90;;;;;;5026722;28;20322;-87
2023/06/02 00:12:02;;;;;;;;;;;10.30;99.90;;;;;;5036681;28;19943;-87
2023/06/02 00:14:28;;;;;;;;;;;10.30;99.90;;;;;;5036306;28;19929;-87
2023/06/02 00:16:55;;;;;;;;;;;10.30;99.90;;;;;;5016564;28;19932;-87
2023/06/02 00:19:23;;;;;;;;;;;10.30;99.90;;;;;;5007371;28;19925;-87
2023/06/02 00:21:51;;;;;;;;;;;10.40;99.90;;;;;;5027038;28;19928;-88
2023/06/02 00:24:16;;;;;;;;;;;10.30;99.90;;;;;;5036350;28;19935;-87
2023/06/02 00:26:42;;;;;;;;;;;10.30;99.90;;;;;;5020105;28;20367;-88
2023/06/02 00:29:07;;;;;;;;;;;10.30;99.90;;;;;;5036511;28;19991;-87
2023/06/02 00:31:34;;;;;;;;;;;10.30;99.90;;;;;;5036494;28;20354;-86
2023/06/02 00:33:59;;;;;;;;;;;10.30;99.90;;;;;;5020543;28;19925;-85
2023/06/02 00:36:25;;;;;;;;;;;10.20;99.90;;;;;;5035792;28;19932;-86
2023/06/02 00:38:51;;;;;;;;;;;10.20;99.90;;;;;;5017614;28;19948;-85
2023/06/02 00:41:16;;;;;;;;;;;10.30;99.90;;;;;;5000257;28;19937;-88
2023/06/02 00:43:42;;;;;;;;;;;10.30;99.90;;;;;;5035497;28;20370;-88
2023/06/02 00:46:07;;;;;;;;;;;10.20;99.90;;;;;;5019485;28;19932;-88
2023/06/02 00:48:33;;;;;;;;;;;10.20;99.90;;;;;;5017909;28;19925;-87
2023/06/02 00:50:59;;;;;;;;;;;10.20;99.90;;;;;;5035950;28;19925;-87
2023/06/02 00:53:25;;;;;;;;;;;10.20;99.90;;;;;;5009322;28;20356;-88
2023/06/02 00:55:52;;;;;;;;;;;10.20;99.90;;;;;;5009798;28;19932;-87
2023/06/02 00:58:17;;;;;;;;;;;10.20;99.90;;;;;;5019227;28;19971;-86
2023/06/02 01:00:43;;;;;;;;;;;10.20;99.90;;;;;;5021859;28;19928;-87
2023/06/02 01:03:09;;;;;;;;;;;10.20;99.90;;;;;;5028819;28;19925;-87
2023/06/02 01:05:36;;;;;;;;;;;10.20;99.90;;;;;;5018846;28;19972;-86
2023/06/02 01:08:03;;;;;;;;;;;10.10;99.90;;;;;;5019410;28;19925;-87
2023/06/02 01:10:29;;;;;;;;;;;10.10;99.90;;;;;;5018952;28;20007;-87
2023/06/02 01:12:55;;;;;;;;;;;10.10;99.90;;;;;;5035619;28;20016;-87
2023/06/02 01:15:21;;;;;;;;;;;10.10;99.90;;;;;;5035519;28;19940;-87
2023/06/02 01:17:47;;;;;;;;;;;10.10;99.90;;;;;;5035274;28;20370;-86
2023/06/02 01:20:13;;;;;;;;;;;10.00;99.90;;;;;;5034763;28;20322;-86
2023/06/02 01:22:43;;;;;;;;;;;10.00;99.90;;;;;;5022068;28;20367;-86
2023/06/02 01:25:18;;;;;;;;;;;9.90;99.90;;;;;;5028765;28;20298;-87
2023/06/02 01:27:43;;;;;;;;;;;9.90;99.90;;;;;;5038180;28;19925;-87
2023/06/02 01:30:09;;;;;;;;;;;9.90;99.90;;;;;;5046075;28;20007;-87
2023/06/02 01:32:39;;;;;;;;;;;9.90;99.90;;;;;;5038780;28;20466;-87
2023/06/02 01:35:09;;;;;;;;;;;9.80;99.90;;;;;;5039210;28;20290;-87
2023/06/02 01:37:36;;;;;;;;;;;9.80;99.90;;;;;;5024111;28;19935;-87
2023/06/02 01:40:05;;;;;;;;;;;9.70;99.90;;;;;;5022855;28;19925;-87
2023/06/02 01:42:31;;;;;;;;;;;9.70;99.90;;;;;;5039678;28;19924;-87
2023/06/02 01:44:57;;;;;;;;;;;9.60;99.90;;;;;;5022684;28;20078;-87
2023/06/02 01:47:23;;;;;;;;;;;9.60;99.90;;;;;;5039050;28;19964;-87
2023/06/02 01:49:48;;;;;;;;;;;9.60;99.90;;;;;;5004187;28;19995;-87
2023/06/02 01:52:15;;;;;;;;;;;9.60;99.90;;;;;;5003690;28;19925;-87
2023/06/02 01:54:43;;;;;;;;;;;9.60;99.90;;;;;;5030123;28;19980;-87
2023/06/02 01:57:09;;;;;;;;;;;9.50;99.90;;;;;;5052692;28;20016;-88
2023/06/02 01:59:35;;;;;;;;;;;9.50;99.90;;;;;;5032484;28;19976;-87
2023/06/02 02:02:01;;;;;;;;;;;9.50;99.90;;;;;;5031829;28;19929;-87
2023/06/02 02:04:26;;;;;;;;;;;9.50;99.90;;;;;;5021977;28;19936;-87
2023/06/02 02:06:52;;;;;;;;;;;9.50;99.90;;;;;;5022460;28;19924;-87
2023/06/02 02:09:18;;;;;;;;;;;9.60;99.90;;;;;;5022956;28;19925;-86
2023/06/02 02:11:43;;;;;;;;;;;9.60;99.90;;;;;;5039333;28;19929;-87
2023/06/02 02:14:09;;;;;;;;;;;9.60;99.90;;;;;;5026076;28;20016;-86
2023/06/02 02:16:35;;;;;;;;;;;9.70;99.90;;;;;;5027862;28;19925;-87
2023/06/02 02:19:01;;;;;;;;;;;9.70;99.90;;;;;;5024498;28;19925;-86
2023/06/02 02:21:26;;;;;;;;;;;9.70;99.90;;;;;;5039116;28;20003;-87
2023/06/02 02:23:53;;;;;;;;;;;9.70;99.90;;;;;;5042301;28;19925;-86
2023/06/02 02:26:18;;;;;;;;;;;9.70;99.90;;;;;;5026867;28;20385;-86
2023/06/02 02:28:45;;;;;;;;;;;9.60;99.90;;;;;;5045207;28;19925;-87
2023/06/02 02:31:11;;;;;;;;;;;9.60;99.90;;;;;;5026974;28;19931;-87
2023/06/02 02:33:36;;;;;;;;;;;9.60;99.90;;;;;;5023870;28;19933;-86
2023/06/02 02:36:03;;;;;;;;;;;9.60;99.90;;;;;;5024345;28;20343;-86
2023/06/02 02:38:28;;;;;;;;;;;9.70;99.90;;;;;;5034175;28;19932;-86
2023/06/02 02:40:54;;;;;;;;;;;9.70;99.90;;;;;;5035195;28;20378;-86
2023/06/02 02:43:21;;;;;;;;;;;9.80;99.90;;;;;;5038622;28;19925;-87
2023/06/02 02:45:47;;;;;;;;;;;9.80;99.90;;;;;;5023579;28;19928;-87
2023/06/02 02:48:12;;;;;;;;;;;9.70;99.90;;;;;;5022229;28;19928;-87
2023/06/02 02:50:38;;;;;;;;;;;9.80;99.90;;;;;;5021382;28;19925;-87
2023/06/02 02:53:04;;;;;;;;;;;9.80;99.90;;;;;;4994086;28;20012;-87
2023/06/02 02:55:32;;;;;;;;;;;9.80;99.90;;;;;;5011109;28;20351;-87
2023/06/02 02:57:59;;;;;;;;;;;9.80;99.90;;;;;;5016282;28;20286;-87
2023/06/02 03:00:25;;;;;;;;;;;9.80;99.90;;;;;;5021542;28;19999;-86
2023/06/02 03:02:51;;;;;;;;;;;9.80;99.90;;;;;;5037692;28;19940;-86
2023/06/02 03:05:16;;;;;;;;;;;9.90;99.90;;;;;;5012822;28;19935;-86
2023/06/02 03:07:44;;;;;;;;;;;9.90;99.90;;;;;;5037984;28;19925;-86
2023/06/02 03:10:10;;;;;;;;;;;9.90;99.90;;;;;;5008897;28;19924;-86
2023/06/02 03:12:36;;;;;;;;;;;9.90;99.90;;;;;;5021054;28;20525;-86
2023/06/02 03:15:01;;;;;;;;;;;9.90;99.90;;;;;;5037228;28;19924;-86
2023/06/02 03:17:27;;;;;;;;;;;9.90;99.90;;;;;;5037037;28;20011;-86
2023/06/02 03:19:54;;;;;;;;;;;9.60;99.90;;;;;;5037263;28;20015;-86
2023/06/02 03:22:20;;;;;;;;;;;9.90;99.90;;;;;;5037731;28;20382;-86
2023/06/02 03:24:46;;;;;;;;;;;9.90;99.90;;;;;;5034436;28;20019;-86
2023/06/02 03:27:15;;;;;;;;;;;10.00;99.90;;;;;;5003018;28;19999;-86
2023/06/02 03:29:41;;;;;;;;;;;10.00;99.90;;;;;;5021374;28;19925;-86
2023/06/02 03:32:11;;;;;;;;;;;10.00;99.90;;;;;;5037616;28;20406;-86
2023/06/02 03:34:39;;;;;;;;;;;10.00;99.90;;;;;;5020782;28;19935;-86
2023/06/02 03:37:05;;;;;;;;;;;10.00;99.90;;;;;;5037703;28;19932;-87
2023/06/02 03:39:31;;;;;;;;;;;10.00;99.90;;;;;;5016861;28;19932;-86
2023/06/02 03:41:56;;;;;;;;;;;10.00;99.90;;;;;;5010877;28;20294;-86
2023/06/02 03:44:22;;;;;;;;;;;10.10;99.90;;;;;;5052980;28;19925;-86
2023/06/02 03:46:47;;;;;;;;;;;10.00;99.90;;;;;;5011677;28;19925;-86
2023/06/02 03:49:13;;;;;;;;;;;10.00;99.90;;;;;;5019761;28;19924;-86
2023/06/02 03:51:42;;;;;;;;;;;10.00;99.90;;;;;;5026110;28;19925;-86
2023/06/02 03:54:07;;;;;;;;;;;10.10;99.90;;;;;;5003638;28;19975;-86
2023/06/02 03:56:33;;;;;;;;;;;10.10;99.90;;;;;;5020464;28;19987;-86
2023/06/02 03:58:59;;;;;;;;;;;10.10;99.90;;;;;;5020380;28;20267;-86
2023/06/02 04:01:24;;;;;;;;;;;10.10;99.90;;;;;;5036766;28;19955;-86
2023/06/02 04:03:50;;;;;;;;;;;10.10;99.90;;;;;;5035519;28;19924;-86
2023/06/02 04:06:16;;;;;;;;;;;10.10;99.90;;;;;;5037143;28;20015;-87
2023/06/02 04:08:45;;;;;;;;;;;10.10;99.90;;;;;;5022635;28;20371;-86
2023/06/02 04:11:11;;;;;;;;;;;10.20;99.90;;;;;;5020812;28;19925;-86
2023/06/02 04:13:36;;;;;;;;;;;10.20;99.90;;;;;;5020049;28;19940;-87
2023/06/02 04:16:04;;;;;;;;;;;10.20;99.90;;;;;;5036577;28;19925;-86
2023/06/02 04:18:31;;;;;;;;;;;10.20;99.90;;;;;;5035836;28;19931;-86
2023/06/02 04:20:59;;;;;;;;;;;10.30;99.90;;;;;;5036352;28;19929;-86
2023/06/02 04:23:27;;;;;;;;;;;10.30;99.90;;;;;;5036455;28;19968;-86
2023/06/02 04:25:53;;;;;;;;;;;11.10;99.90;;;;;;5036570;28;19932;-87
2023/06/02 04:28:19;;;;;;;;;;;10.20;99.90;;;;;;5019881;28;19925;-87
2023/06/02 04:30:45;;;;;;;;;;;10.50;99.90;;;;;;5036737;28;19925;-87
2023/06/02 04:33:16;;;;;;;;;;;10.70;99.90;;;;;;5019733;28;19964;-87
2023/06/02 04:35:42;;;;;;;;;;;10.40;99.90;;;;;;5019627;28;19925;-86
2023/06/02 04:38:09;;;;;;;;;;;10.50;99.90;;;;;;5036386;28;20015;-87
2023/06/02 04:40:37;;;;;;;;;;;10.60;99.90;;;;;;5019877;28;20359;-87
2023/06/02 04:43:03;;;;;;;;;;;10.50;99.90;;;;;;5019198;28;19975;-87
2023/06/02 04:45:29;;;;;;;;;;;10.40;99.90;;;;;;5036294;28;19925;-87
2023/06/02 04:47:55;;;;;;;;;;;10.50;99.90;;;;;;5035562;28;19951;-87
2023/06/02 04:50:20;;;;;;;;;;;10.60;99.90;;;;;;5019521;28;19925;-87
2023/06/02 04:52:46;;;;;;;;;;;10.70;99.90;;;;;;5036372;28;19948;-86
2023/06/02 04:55:12;;;;;;;;;;;10.80;99.90;;;;;;5036032;28;20082;-86
2023/06/02 04:57:38;;;;;;;;;;;10.60;99.90;;;;;;5036344;28;19925;-86
2023/06/02 05:00:07;;;;;;;;;;;11.00;99.90;;;;;;5042585;28;19976;-86
2023/06/02 05:02:33;;;;;;;;;;;10.70;99.90;;;;;;5043809;28;20344;-86
2023/06/02 05:05:01;;;;;;;;;;;8.40;99.90;;;;;;5029245;28;19976;-86
2023/06/02 05:07:27;;;;;;;;;;;10.70;99.90;;;;;;5036759;28;19967;-87
2023/06/02 05:09:53;;;;;;;;;;;10.70;99.90;;;;;;5035612;28;19976;-86
2023/06/02 05:12:21;;;;;;;;;;;10.80;99.90;;;;;;5017155;28;19932;-86
2023/06/02 05:14:49;;;;;;;;;;;10.70;99.90;;;;;;5035675;28;20456;-86
2023/06/02 05:17:19;;;;;;;;;;;9.60;99.90;;;;;;5035586;28;19925;-86
2023/06/02 05:19:46;;;;;;;;;;;11.00;99.90;;;;;;5012699;28;19925;-86
2023/06/02 05:22:14;;;;;;;;;;;10.90;99.90;;;;;;5028763;28;19925;-87
2023/06/02 05:24:42;;;;;;;;;;;11.00;99.90;;;;;;5027271;28;19925;-86
2023/06/02 05:27:07;;;;;;;;;;;11.00;99.90;;;;;;5025613;28;19932;-86
2023/06/02 05:29:33;;;;;;;;;;;9.20;99.90;;;;;;5033611;28;19925;-86
2023/06/02 05:31:59;;;;;;;;;;;11.30;99.90;;;;;;5013832;28;19925;-86
2023/06/02 05:34:25;;;;;;;;;;;11.10;99.90;;;;;;5027716;28;19931;-87
2023/06/02 05:36:53;;;;;;;;;;;11.20;99.90;;;;;;5026428;28;20067;-85
2023/06/02 05:39:21;;;;;;;;;;;12.10;99.90;;;;;;5030391;28;20281;-86
2023/06/02 05:41:49;;;;;;;;;;;9.70;99.90;;;;;;5020093;28;19925;-87
2023/06/02 05:44:15;;;;;;;;;;;11.80;99.90;;;;;;5014137;28;20452;-86
2023/06/02 05:46:43;;;;;;;;;;;11.60;99.90;;;;;;5020685;28;20012;-85
2023/06/02 05:49:14;;;;;;;;;;;11.60;99.90;;;;;;5016509;28;19959;-87
2023/06/02 05:51:46;;;;;;;;;;;11.70;99.90;;;;;;5010390;28;20272;-87
2023/06/02 05:54:12;;;;;;;;;;;12.10;99.90;;;;;;5033680;28;20019;-85
2023/06/02 05:56:40;;;;;;;;;;;11.80;99.90;;;;;;5027121;28;20020;-86
2023/06/02 05:59:05;;;;;;;;;;;11.70;99.90;;;;;;5005980;28;19931;-85
2023/06/02 06:01:35;;;;;;;;;;;11.80;99.90;;;;;;5004657;28;20020;-88
2023/06/02 06:04:06;;;;;;;;;;;10.90;99.90;;;;;;5010826;28;19963;-86
2023/06/02 06:06:32;;;;;;;;;;;10.50;99.90;;;;;;5029974;28;20401;-88
2023/06/02 06:09:00;;;;;;;;;;;12.20;99.90;;;;;;5028512;28;19925;-86
2023/06/02 06:11:26;;;;;;;;;;;11.90;99.90;;;;;;5031611;28;19924;-86
2023/06/02 06:14:00;;;;;;;;;;;12.00;99.90;;;;;;5017801;28;20043;-87
2023/06/02 06:16:34;;;;;;;;;;;12.60;99.90;;;;;;5033037;28;20011;-85
2023/06/02 06:19:00;;;;;;;;;;;12.10;99.90;;;;;;5034583;28;20019;-87
2023/06/02 06:21:31;;;;;;;;;;;12.20;99.90;;;;;;5017638;28;19964;-86
2023/06/02 06:23:59;;;;;;;;;;;11.20;99.90;;;;;;5013128;28;19933;-85
2023/06/02 06:26:25;;;;;;;;;;;12.40;99.90;;;;;;5004104;28;20351;-85
2023/06/02 06:28:50;;;;;;;;;;;12.30;99.90;;;;;;5031667;28;19925;-84
2023/06/02 06:31:16;;;;;;;;;;;12.80;99.90;;;;;;5024925;28;19936;-85
2023/06/02 06:33:44;;;;;;;;;;;12.90;99.90;;;;;;5016862;28;20020;-84
2023/06/02 06:36:10;;;;;;;;;;;13.00;99.90;;;;;;5019557;28;19964;-84
2023/06/02 06:38:36;;;;;;;;;;;12.60;99.90;;;;;;5037722;28;20135;-83
2023/06/02 06:41:02;;;;;;;;;;;12.80;99.90;;;;;;5018708;28;20351;-84
2023/06/02 06:43:27;;;;;;;;;;;12.90;99.90;;;;;;5032336;28;19936;-84
2023/06/02 06:45:55;;;;;;;;;;;13.40;99.90;;;;;;5012153;28;19929;-85
2023/06/02 06:48:21;;;;;;;;;;;13.60;99.90;;;;;;5028257;28;20035;-85
2023/06/02 06:50:48;;;;;;;;;;;13.40;99.90;;;;;;5034937;28;20015;-85
2023/06/02 06:53:13;;;;;;;;;;;13.60;99.90;;;;;;5029251;28;20004;-84
2023/06/02 06:55:39;;;;;;;;;;;13.70;99.90;;;;;;5034653;28;20035;-84
2023/06/02 06:58:05;;;;;;;;;;;13.70;99.90;;;;;;5033717;28;19932;-84
2023/06/02 07:00:31;;;;;;;;;;;13.70;99.90;;;;;;5017136;28;19924;-84
2023/06/02 07:02:56;;;;;;;;;;;13.80;99.90;;;;;;5016167;28;19995;-84
2023/06/02 07:05:22;;;;;;;;;;;13.70;99.90;;;;;;5034537;28;19960;-84
2023/06/02 07:07:48;;;;;;;;;;;13.80;99.90;;;;;;5034382;28;19928;-83
2023/06/02 07:10:14;;;;;;;;;;;13.80;99.90;;;;;;5001103;28;19925;-83
2023/06/02 07:12:40;;;;;;;;;;;13.90;99.90;;;;;;5026382;28;19931;-83
2023/06/02 07:15:05;;;;;;;;;;;13.90;99.90;;;;;;5017185;28;19925;-84
2023/06/02 07:17:31;;;;;;;;;;;14.00;99.90;;;;;;5026952;28;19929;-85
2023/06/02 07:19:57;;;;;;;;;;;14.10;99.90;;;;;;5013919;28;19936;-84
2023/06/02 07:22:22;;;;;;;;;;;14.10;99.90;;;;;;5011610;28;20004;-85
2023/06/02 07:24:48;;;;;;;;;;;14.10;99.90;;;;;;5030517;28;20341;-85
2023/06/02 07:27:14;;;;;;;;;;;14.20;99.90;;;;;;5013295;28;19925;-84
2023/06/02 07:29:39;;;;;;;;;;;14.20;99.90;;;;;;5032201;28;19929;-87
2023/06/02 07:32:05;;;;;;;;;;;14.20;99.90;;;;;;5032358;28;19924;-84
2023/06/02 07:34:31;;;;;;;;;;;14.40;99.90;;;;;;5032920;28;19925;-85
2023/06/02 07:37:00;;;;;;;;;;;14.60;99.90;;;;;;5016483;28;20267;-86
2023/06/02 07:39:26;;;;;;;;;;;14.70;99.90;;;;;;5030050;28;20073;-83
2023/06/02 07:41:51;;;;;;;;;;;14.80;99.90;;;;;;5017034;28;19929;-84
2023/06/02 07:44:17;;;;;;;;;;;14.80;99.90;;;;;;5017740;28;19924;-84
2023/06/02 07:46:43;;;;;;;;;;;14.80;99.90;;;;;;5034551;28;19924;-85
2023/06/02 07:49:09;;;;;;;;;;;14.70;99.90;;;;;;5033494;28;19925;-85
2023/06/02 07:51:35;;;;;;;;;;;14.60;99.90;;;;;;5034270;28;19935;-87
2023/06/02 07:54:01;;;;;;;;;;;14.60;99.90;;;;;;5030215;28;19925;-84
2023/06/02 07:56:27;;;;;;;;;;;14.60;99.90;;;;;;5034398;28;20297;-86
2023/06/02 07:58:52;;;;;;;;;;;14.60;99.90;;;;;;5015043;28;20243;-85
2023/06/02 08:01:18;;;;;;;;;;;14.70;99.90;;;;;;5031321;28;19933;-85
2023/06/02 08:03:43;;;;;;;;;;;14.70;99.90;;;;;;5030181;28;19929;-86
2023/06/02 08:06:09;;;;;;;;;;;14.80;99.90;;;;;;5035221;28;19932;-84
2023/06/02 08:08:35;;;;;;;;;;;14.80;99.90;;;;;;5024411;28;20110;-85
2023/06/02 08:11:00;;;;;;;;;;;14.90;99.90;;;;;;5018616;28;19982;-85
2023/06/02 08:13:26;;;;;;;;;;;14.90;99.90;;;;;;5032288;28;19963;-84
2023/06/02 08:15:52;;;;;;;;;;;15.00;99.90;;;;;;5014445;28;19998;-84
2023/06/02 08:18:18;;;;;;;;;;;15.10;99.90;;;;;;5013362;28;20217;-84
2023/06/02 08:20:45;;;;;;;;;;;15.20;99.90;;;;;;5033698;28;20020;-85
2023/06/02 08:23:10;;;;;;;;;;;15.20;99.90;;;;;;5014350;28;19925;-84
2023/06/02 08:25:40;;;;;;;;;;;15.30;99.90;;;;;;5030442;28;19954;-86
2023/06/02 08:28:06;;;;;;;;;;;15.40;99.90;;;;;;5030333;28;19931;-84
2023/06/02 08:30:33;;;;;;;;;;;15.40;99.90;;;;;;5034114;28;20280;-85
2023/06/02 08:33:02;;;;;;;;;;;15.40;99.90;;;;;;5033067;28;19924;-88
2023/06/02 08:35:28;;;;;;;;;;;15.50;99.90;;;;;;5032290;28;19925;-85
2023/06/02 08:37:55;;;;;;;;;;;15.60;99.90;;;;;;5007906;28;19964;-86
2023/06/02 08:40:23;;;;;;;;;;;15.60;99.90;;;;;;5014465;28;19925;-85
2023/06/02 08:42:50;;;;;;;;;;;15.70;99.90;;;;;;5031856;28;20011;-86
2023/06/02 08:45:20;;;;;;;;;;;15.70;99.90;;;;;;5025253;28;20582;-87
2023/06/02 08:47:50;;;;;;;;;;;15.80;99.90;;;;;;5029093;28;19943;-85
2023/06/02 08:50:15;;;;;;;;;;;15.90;99.90;;;;;;5029224;28;19929;-84
2023/06/02 08:52:43;;;;;;;;;;;16.00;99.90;;;;;;5011671;28;19925;-86
2023/06/02 08:55:09;;;;;;;;;;;16.00;99.90;;;;;;5033144;28;19932;-86
2023/06/02 08:57:35;;;;;;;;;;;16.20;99.90;;;;;;5028456;28;20346;-86
2023/06/02 09:00:01;;;;;;;;;;;16.20;99.90;;;;;;5024945;28;19979;-85
2023/06/02 09:02:26;;;;;;;;;;;16.20;99.90;;;;;;5013414;28;20081;-83
2023/06/02 09:04:52;;;;;;;;;;;16.30;99.90;;;;;;4995572;28;20359;-85
2023/06/02 09:07:20;;;;;;;;;;;16.30;99.90;;;;;;5031325;28;19931;-85
2023/06/02 09:09:47;;;;;;;;;;;16.50;99.90;;;;;;5032025;28;19932;-86
2023/06/02 09:12:17;;;;;;;;;;;16.60;99.90;;;;;;5024374;28;20365;-87
2023/06/02 09:14:43;;;;;;;;;;;16.70;99.90;;;;;;5032628;28;19968;-86
2023/06/02 09:17:25;;;;;;;;;;;16.90;99.90;;;;;;5032658;28;20026;-89
2023/06/02 09:19:52;;;;;;;;;;;16.90;99.90;;;;;;5027556;28;20393;-87
2023/06/02 09:22:18;;;;;;;;;;;16.90;99.90;;;;;;5015589;28;19925;-84
2023/06/02 09:24:43;;;;;;;;;;;17.00;99.90;;;;;;5018780;28;19971;-86
2023/06/02 09:27:13;;;;;;;;;;;17.00;99.90;;;;;;5032911;28;20041;-85
2023/06/02 09:29:39;;;;;;;;;;;17.10;99.90;;;;;;5040587;28;19929;-84
2023/06/02 09:32:10;;;;;;;;;;;17.10;99.90;;;;;;5033189;28;19931;-85
2023/06/02 09:34:35;;;;;;;;;;;17.10;99.90;;;;;;5012907;28;20012;-84
2023/06/02 09:37:09;;;;;;;;;;;17.10;99.90;;;;;;5033435;28;20015;-87
2023/06/02 09:39:38;;;;;;;;;;;17.20;99.40;;;;;;5026447;28;20021;-86
2023/06/02 09:42:06;;;;;;;;;;;17.10;99.90;;;;;;5027967;28;20294;-86
2023/06/02 09:44:31;;;;;;;;;;;17.20;99.90;;;;;;5012586;28;19925;-87
2023/06/02 09:46:59;;;;;;;;;;;17.30;99.90;;;;;;5022104;28;19964;-87
2023/06/02 09:49:25;;;;;;;;;;;17.30;99.90;;;;;;5025760;28;19976;-86
2023/06/02 09:51:50;;;;;;;;;;;17.40;99.90;;;;;;5036817;28;20007;-86
2023/06/02 09:54:16;;;;;;;;;;;17.50;99.90;;;;;;5007797;28;19940;-84
2023/06/02 09:56:43;;;;;;;;;;;17.50;99.50;;;;;;5022946;28;19925;-87
2023/06/02 09:59:08;;;;;;;;;;;17.50;99.80;;;;;;5017545;28;19925;-85
2023/06/02 10:01:35;;;;;;;;;;;17.60;99.30;;;;;;5035566;28;19933;-87
2023/06/02 10:04:01;;;;;;;;;;;17.60;96.00;;;;;;5029196;28;19948;-88
2023/06/02 10:06:35;;;;;;;;;;;17.50;97.40;;;;;;5036936;28;19983;-85
2023/06/02 10:09:13;;;;;;;;;;;17.60;97.70;;;;;;5028246;28;19925;-85
2023/06/02 10:11:47;;;;;;;;;;;17.70;93.90;;;;;;5024464;28;19932;-86
2023/06/02 10:14:26;;;;;;;;;;;17.70;94.80;;;;;;5029580;28;19929;-86
2023/06/02 10:16:52;;;;;;;;;;;17.80;93.30;;;;;;5020198;28;20305;-85
2023/06/02 10:19:33;;;;;;;;;;;17.90;91.80;;;;;;5032235;28;19925;-85
2023/06/02 10:22:10;;;;;;;;;;;17.90;91.20;;;;;;5034809;28;20267;-89
2023/06/02 10:24:39;;;;;;;;;;;17.80;88.60;;;;;;5015749;28;19964;-86
2023/06/02 10:27:14;;;;;;;;;;;17.90;85.00;;;;;;5020871;28;20019;-85
2023/06/02 10:29:40;;;;;;;;;;;18.10;84.70;;;;;;5008882;28;19929;-85
2023/06/02 10:32:22;;;;;;;;;;;18.00;83.40;;;;;;5017050;28;19925;-86
2023/06/02 10:34:49;;;;;;;;;;;18.00;86.30;;;;;;5019258;28;20327;-88
2023/06/02 10:37:15;;;;;;;;;;;18.00;86.90;;;;;;5025985;28;19973;-87
2023/06/02 10:39:41;;;;;;;;;;;18.20;83.60;;;;;;5030958;28;20386;-85
2023/06/02 10:42:11;;;;;;;;;;;18.30;83.60;;;;;;5013593;28;19929;-83
2023/06/02 10:44:36;;;;;;;;;;;18.40;77.50;;;;;;5031783;28;20372;-84
2023/06/02 10:47:17;;;;;;;;;;;18.40;71.40;;;;;;5020902;28;19963;-85
2023/06/02 10:49:58;;;;;;;;;;;18.30;73.10;;;;;;5032334;28;19925;-84
2023/06/02 10:52:24;;;;;;;;;;;18.30;71.10;;;;;;5036987;28;19975;-83
2023/06/02 10:55:10;;;;;;;;;;;18.30;71.90;;;;;;5037290;28;20328;-84
2023/06/02 10:57:55;;;;;;;;;;;18.30;71.90;;;;;;5028812;28;19924;-86
2023/06/02 11:00:35;;;;;;;;;;;18.50;71.20;;;;;;5020145;28;20060;-89
2023/06/02 11:03:01;;;;;;;;;;;18.50;72.50;;;;;;5027281;28;20062;-86
2023/06/02 11:05:33;;;;;;;;;;;18.60;73.90;;;;;;5034247;28;20035;-85
2023/06/02 11:08:11;;;;;;;;;;;18.70;73.10;;;;;;5023034;28;19928;-86
2023/06/02 11:10:47;;;;;;;;;;;18.70;75.30;;;;;;5011994;28;19976;-85
2023/06/02 11:13:13;;;;;;;;;;;18.70;77.30;;;;;;5026302;28;20406;-87
2023/06/02 11:16:01;;;;;;;;;;;18.80;78.60;;;;;;5015487;28;19979;-85
2023/06/02 11:18:31;;;;;;;;;;;18.80;79.10;;;;;;5028877;28;19940;-86
2023/06/02 11:21:01;;;;;;;;;;;18.90;81.90;;;;;;5015943;28;19933;-85
2023/06/02 11:23:26;;;;;;;;;;;19.00;84.00;;;;;;5032147;28;19954;-85
2023/06/02 11:25:58;;;;;;;;;;;19.10;81.70;;;;;;5030419;28;19925;-84
2023/06/02 11:28:24;;;;;;;;;;;19.10;83.00;;;;;;5034175;28;19925;-85
2023/06/02 11:31:08;;;;;;;;;;;19.10;85.90;;;;;;5035983;28;20008;-87
2023/06/02 11:33:35;;;;;;;;;;;19.30;88.10;;;;;;5029668;28;20014;-86
2023/06/02 11:36:00;;;;;;;;;;;19.60;88.00;;;;;;5017871;28;19932;-86
2023/06/02 11:38:31;;;;;;;;;;;19.60;88.60;;;;;;5013907;28;19929;-85
2023/06/02 11:41:08;;;;;;;;;;;19.50;90.50;;;;;;5037647;28;19935;-85
2023/06/02 11:43:33;;;;;;;;;;;19.70;90.70;;;;;;5030005;28;20004;-87
2023/06/02 11:46:07;;;;;;;;;;;19.70;90.60;;;;;;5028115;28;20019;-86
2023/06/02 11:48:41;;;;;;;;;;;19.80;90.80;;;;;;5033373;28;20019;-86
2023/06/02 11:51:07;;;;;;;;;;;20.40;93.20;;;;;;5045129;28;19929;-87
2023/06/02 11:53:34;;;;;;;;;;;20.00;92.30;;;;;;5035304;28;19925;-86
2023/06/02 11:56:05;;;;;;;;;;;20.10;92.60;;;;;;5035940;28;19931;-87
2023/06/02 11:58:31;;;;;;;;;;;20.00;91.80;;;;;;5034645;28;19933;-86
2023/06/02 12:01:09;;;;;;;;;;;20.10;93.50;;;;;;5019303;28;20015;-86
2023/06/02 12:03:36;;;;;;;;;;;19.80;91.60;;;;;;5034617;28;19948;-86
2023/06/02 12:06:11;;;;;;;;;;;19.60;93.10;;;;;;5019660;28;19925;-86
2023/06/02 12:08:37;;;;;;;;;;;19.40;93.30;;;;;;5017370;28;20028;-85
2023/06/02 12:11:22;;;;;;;;;;;19.40;94.10;;;;;;5014209;28;20016;-86
2023/06/02 12:13:59;;;;;;;;;;;19.80;94.00;;;;;;5031416;28;19929;-86
2023/06/02 12:16:25;;;;;;;;;;;20.00;92.60;;;;;;5032061;28;19929;-86
2023/06/02 12:18:51;;;;;;;;;;;20.00;93.60;;;;;;5034324;28;19991;-87
2023/06/02 12:21:26;;;;;;;;;;;19.90;93.30;;;;;;5035878;28;19952;-85
2023/06/02 12:23:54;;;;;;;;;;;19.70;92.50;;;;;;5019092;28;19995;-86
2023/06/02 12:26:21;;;;;;;;;;;19.70;93.10;;;;;;5023087;28;20349;-90
2023/06/02 12:28:57;;;;;;;;;;;18.80;93.90;;;;;;5031640;28;19925;-87
2023/06/02 12:31:30;;;;;;;;;;;19.40;95.60;;;;;;5037079;28;20446;-87
2023/06/02 12:33:56;;;;;;;;;;;19.10;97.50;;;;;;5024409;28;20498;-86
2023/06/02 12:36:24;;;;;;;;;;;19.00;97.30;;;;;;5036489;28;19932;-87
2023/06/02 12:38:52;;;;;;;;;;;19.10;98.10;;;;;;5015098;28;19925;-88
2023/06/02 12:41:18;;;;;;;;;;;18.20;97.80;;;;;;5030614;28;20331;-87
2023/06/02 12:43:49;;;;;;;;;;;18.70;98.80;;;;;;5019217;28;19980;-87
2023/06/02 12:46:20;;;;;;;;;;;18.70;99.80;;;;;;5019875;28;20019;-87
2023/06/02 12:48:48;;;;;;;;;;;19.00;99.90;;;;;;5035179;28;19973;-88
2023/06/02 12:51:15;;;;;;;;;;;19.20;99.90;;;;;;5018976;28;19931;-87
2023/06/02 12:53:43;;;;;;;;;;;19.90;99.50;;;;;;5018215;28;19936;-88
2023/06/02 12:56:09;;;;;;;;;;;19.40;99.90;;;;;;5034842;28;19925;-89
2023/06/02 12:58:39;;;;;;;;;;;19.10;99.90;;;;;;5015844;28;20082;-87
2023/06/02 13:01:13;;;;;;;;;;;19.20;99.90;;;;;;5016128;28;20013;-88
2023/06/02 13:03:41;;;;;;;;;;;18.90;99.90;;;;;;5017989;28;20285;-89
2023/06/02 13:06:12;;;;;;;;;;;19.00;99.90;;;;;;5035576;28;19948;-88
2023/06/02 13:08:46;;;;;;;;;;;19.50;99.90;;;;;;5015065;28;19925;-89
2023/06/02 13:11:17;;;;;;;;;;;17.80;99.60;;;;;;5033878;28;19924;-91
2023/06/02 13:13:42;;;;;;;;;;;20.10;99.90;;;;;;5033758;28;19974;-91
2023/06/02 13:16:10;;;;;;;;;;;20.20;98.70;;;;;;5033733;28;19928;-89
2023/06/02 13:18:36;;;;;;;;;;;20.20;98.50;;;;;;5016380;28;20016;-85
2023/06/02 13:21:04;;;;;;;;;;;20.40;96.70;;;;;;5001981;28;20064;-88
2023/06/02 13:23:31;;;;;;;;;;;20.20;98.50;;;;;;5002585;28;19940;-86
2023/06/02 13:25:59;;;;;;;;;;;18.80;98.90;;;;;;5034794;28;19928;-87
2023/06/02 13:28:30;;;;;;;;;;;20.60;98.80;;;;;;5035149;28;19979;-88
2023/06/02 13:30:58;;;;;;;;;;;20.50;98.90;;;;;;4992448;28;20447;-88
2023/06/02 13:33:24;;;;;;;;;;;20.70;98.40;;;;;;4975487;28;19926;-87
2023/06/02 13:35:50;;;;;;;;;;;20.70;98.00;;;;;;4974943;28;20076;-87
2023/06/02 13:38:16;;;;;;;;;;;20.20;98.80;;;;;;4975011;28;20012;-92
2023/06/02 13:40:44;;;;;;;;;;;20.60;99.00;;;;;;4958812;28;19926;-88
2023/06/02 13:43:12;;;;;;;;;;;20.00;99.90;;;;;;4949099;28;20016;-88
2023/06/02 13:45:40;;;;;;;;;;;20.20;99.90;;;;;;4962176;28;19930;-87
2023/06/02 13:48:26;;;;;;;;;;;19.90;99.90;;;;;;4978746;28;19930;-89
2023/06/02 13:50:54;;;;;;;;;;;19.60;99.90;;;;;;4958100;28;19926;-87
2023/06/02 13:53:20;;;;;;;;;;;17.90;99.90;;;;;;4959075;28;19955;-86
2023/06/02 13:55:45;;;;;;;;;;;19.40;99.90;;;;;;4974666;28;19926;-88
2023/06/02 13:58:11;;;;;;;;;;;19.50;99.90;;;;;;4991111;28;20062;-89
2023/06/02 14:00:40;;;;;;;;;;;19.50;99.90;;;;;;4958573;28;20354;-87
2023/06/02 14:03:13;;;;;;;;;;;19.50;99.90;;;;;;5032265;28;19972;-87
2023/06/02 14:05:44;;;;;;;;;;;19.50;99.90;;;;;;5034396;28;19932;-88
2023/06/02 14:08:17;;;;;;;;;;;19.50;99.90;;;;;;5034695;28;20437;-89
2023/06/02 14:10:43;;;;;;;;;;;19.50;99.90;;;;;;5018736;28;19925;-90
2023/06/02 14:13:08;;;;;;;;;;;19.70;99.90;;;;;;5034442;28;20247;-89
2023/06/02 14:15:36;;;;;;;;;;;18.40;99.90;;;;;;5034449;28;20310;-85
2023/06/02 14:18:15;;;;;;;;;;;;;;;;;;;;;
2023/06/02 14:20:41;;;;;;;;;;;20.40;99.90;;;;;;5034745;28;19948;-87
2023/06/02 14:23:07;;;;;;;;;;;20.40;99.90;;;;;;5029607;28;19928;-87
2023/06/02 14:25:32;;;;;;;;;;;20.30;99.90;;;;;;5032720;28;19928;-85